createdAt,value
2022-08-14T00:01:10.416Z,4.40
2022-08-14T00:04:34.817Z,4.53
2022-08-14T00:07:36.088Z,4.50
2022-08-14T00:10:51.960Z,4.30
2022-08-14T00:13:54.813Z,3.78
2022-08-14T00:16:56.556Z,3.88
2022-08-14T00:19:58.283Z,3.40
2022-08-14T00:23:12.367Z,3.85
2022-08-14T00:26:23.046Z,3.15
2022-08-14T00:29:27.142Z,3.25
2022-08-14T00:32:52.598Z,2.85
2022-08-14T00:36:35.425Z,2.70
2022-08-14T00:39:17.756Z,3.00
2022-08-14T00:42:21.362Z,2.75
2022-08-14T00:45:43.268Z,4.22
2022-08-14T00:48:54.117Z,4.88
2022-08-14T00:52:00.570Z,6.40
2022-08-14T00:55:03.051Z,5.97
2022-08-14T00:58:27.742Z,6.85
2022-08-14T01:01:36.271Z,5.80
2022-08-14T01:04:53.673Z,6.20
2022-08-14T01:08:06.443Z,5.97
2022-08-14T01:11:35.528Z,4.27
2022-08-14T01:14:37.986Z,5.38
2022-08-14T01:18:01.659Z,4.78
2022-08-14T01:21:03.921Z,4.18
2022-08-14T01:24:09.889Z,5.07
2022-08-14T01:27:22.264Z,4.90
2022-08-14T01:30:24.849Z,6.00
2022-08-14T01:33:59.248Z,5.20
2022-08-14T01:36:54.121Z,5.03
2022-08-14T01:39:55.843Z,5.15
2022-08-14T01:42:57.546Z,4.95
2022-08-14T01:49:12.023Z,4.43
2022-08-14T01:52:34.110Z,4.88
2022-08-14T01:55:40.415Z,6.30
2022-08-14T01:58:57.205Z,5.25
2022-08-14T02:02:19.024Z,4.43
2022-08-14T02:05:34.963Z,5.15
2022-08-14T02:08:53.167Z,5.30
2022-08-14T02:11:56.911Z,5.28
2022-08-14T02:15:01.563Z,5.28
2022-08-14T02:18:04.419Z,5.45
2022-08-14T02:21:06.571Z,5.72
2022-08-14T02:24:38.293Z,5.20
2022-08-14T02:28:23.644Z,5.43
2022-08-14T02:30:52.876Z,4.00
2022-08-14T02:33:55.077Z,4.38
2022-08-14T02:37:03.486Z,5.32
2022-08-14T02:40:09.316Z,4.68
2022-08-14T02:43:11.735Z,5.95
2022-08-14T02:46:20.653Z,6.78
2022-08-14T02:49:34.295Z,6.07
2022-08-14T02:52:57.145Z,6.63
2022-08-14T02:56:02.926Z,6.00
2022-08-14T02:59:08.058Z,6.93
2022-08-14T03:02:48.882Z,6.40
2022-08-14T03:05:32.986Z,6.50
2022-08-14T03:08:39.651Z,6.93
2022-08-14T03:11:47.695Z,7.25
2022-08-14T03:14:51.702Z,6.70
2022-08-14T03:17:57.789Z,6.65
2022-08-14T03:21:06.162Z,6.20
2022-08-14T03:24:21.663Z,6.03
2022-08-14T03:27:35.412Z,6.35
2022-08-14T03:30:49.473Z,5.35
2022-08-14T03:34:00.013Z,6.38
2022-08-14T03:37:38.143Z,6.45
2022-08-14T03:40:25.298Z,6.47
2022-08-14T03:43:28.506Z,7.28
2022-08-14T03:46:52.961Z,6.38
2022-08-14T03:49:56.558Z,6.72
2022-08-14T03:53:01.654Z,5.90
2022-08-14T03:56:08.035Z,6.15
2022-08-14T03:59:17.994Z,6.00
2022-08-14T04:02:37.288Z,7.05
2022-08-14T04:05:43.281Z,6.78
2022-08-14T04:08:50.624Z,6.60
2022-08-14T04:11:52.295Z,6.38
2022-08-14T04:14:54.299Z,5.82
2022-08-14T04:17:56.430Z,6.57
2022-08-14T04:20:58.812Z,7.00
2022-08-14T04:24:02.101Z,6.43
2022-08-14T04:27:04.082Z,5.80
2022-08-14T04:30:06.524Z,7.70
2022-08-14T04:33:18.394Z,5.70
2022-08-14T04:36:23.935Z,6.88
2022-08-14T04:39:46.503Z,7.22
2022-08-14T04:43:07.061Z,5.32
2022-08-14T04:46:56.603Z,6.70
2022-08-14T04:49:46.708Z,6.13
2022-08-14T04:52:59.338Z,6.70
2022-08-14T04:56:06.062Z,6.53
2022-08-14T04:59:12.612Z,6.22
2022-08-14T05:02:16.615Z,7.40
2022-08-14T05:05:20.940Z,7.22
2022-08-14T05:08:31.840Z,6.20
2022-08-14T05:11:47.393Z,7.28
2022-08-14T05:14:54.742Z,8.38
2022-08-14T05:18:03.672Z,8.05
2022-08-14T05:21:59.859Z,6.80
2022-08-14T05:24:40.598Z,5.30
2022-08-14T05:27:42.491Z,8.13
2022-08-14T05:30:44.458Z,7.68
2022-08-14T05:33:46.830Z,8.45
2022-08-14T05:40:04.888Z,8.02
2022-08-14T05:46:15.314Z,5.85
2022-08-14T05:49:17.295Z,7.35
2022-08-14T05:52:38.586Z,7.28
2022-08-14T05:55:42.873Z,8.13
2022-08-14T05:58:46.710Z,6.80
2022-08-14T06:01:50.621Z,7.05
2022-08-14T06:04:52.738Z,8.00
2022-08-14T06:07:54.613Z,6.57
2022-08-14T06:11:03.677Z,7.45
2022-08-14T06:14:12.408Z,6.88
2022-08-14T06:17:25.778Z,7.45
2022-08-14T06:20:30.174Z,6.80
2022-08-14T06:23:32.217Z,6.55
2022-08-14T06:26:34.121Z,6.28
2022-08-14T06:29:37.315Z,7.03
2022-08-14T06:32:42.300Z,6.93
2022-08-14T06:35:44.663Z,6.10
2022-08-14T06:38:50.487Z,7.78
2022-08-14T06:41:57.953Z,8.05
2022-08-14T06:45:02.767Z,8.35
2022-08-14T06:48:06.299Z,8.30
2022-08-14T06:51:14.485Z,8.80
2022-08-14T06:54:16.123Z,7.43
2022-08-14T06:57:18.021Z,7.88
2022-08-14T07:00:31.194Z,8.43
2022-08-14T07:03:52.230Z,8.40
2022-08-14T07:06:55.583Z,8.98
2022-08-14T07:10:01.316Z,7.95
2022-08-14T07:13:04.386Z,8.93
2022-08-14T07:16:06.887Z,8.48
2022-08-14T07:19:09.950Z,8.13
2022-08-14T07:22:17.623Z,8.65
2022-08-14T07:25:22.412Z,8.15
2022-08-14T07:28:43.593Z,8.45
2022-08-14T07:31:46.965Z,7.43
2022-08-14T07:34:49.245Z,9.00
2022-08-14T07:40:54.575Z,7.60
2022-08-14T07:43:57.748Z,8.45
2022-08-14T07:50:08.043Z,8.80
2022-08-14T07:53:14.199Z,6.90
2022-08-14T07:56:43.767Z,7.75
2022-08-14T07:59:44.113Z,7.22
2022-08-14T08:02:51.723Z,7.53
2022-08-14T08:05:58.043Z,6.47
2022-08-14T08:12:09.475Z,5.22
2022-08-14T08:15:17.073Z,6.18
2022-08-14T08:18:20.411Z,5.78
2022-08-14T08:21:33.270Z,5.65
2022-08-14T08:24:37.305Z,4.13
2022-08-14T08:27:44.496Z,5.35
2022-08-14T08:30:52.165Z,5.30
2022-08-14T08:33:54.529Z,5.63
2022-08-14T08:36:58.255Z,5.35
2022-08-14T08:40:02.936Z,5.10
2022-08-14T08:43:08.607Z,5.70
2022-08-14T08:46:21.272Z,5.18
2022-08-14T08:49:52.707Z,4.38
2022-08-14T08:53:04.735Z,4.53
2022-08-14T08:56:06.974Z,4.22
2022-08-14T08:59:31.564Z,4.30
2022-08-14T09:02:35.598Z,4.78
2022-08-14T09:05:39.256Z,3.88
2022-08-14T09:08:45.688Z,4.53
2022-08-14T09:11:47.418Z,4.88
2022-08-14T09:14:53.226Z,4.20
2022-08-14T09:17:55.191Z,4.60
2022-08-14T09:20:58.914Z,4.35
2022-08-14T09:24:28.529Z,5.20
2022-08-14T09:27:23.383Z,4.93
2022-08-14T09:30:31.443Z,4.80
2022-08-14T09:33:56.250Z,4.88
2022-08-14T09:37:23.979Z,4.90
2022-08-14T09:41:02.565Z,4.57
2022-08-14T09:44:29.977Z,3.72
2022-08-14T09:47:54.000Z,4.65
2022-08-14T09:50:57.261Z,4.38
2022-08-14T09:54:18.038Z,4.30
2022-08-14T09:57:30.429Z,4.25
2022-08-14T10:00:43.826Z,4.03
2022-08-14T10:03:53.688Z,4.35
2022-08-14T10:06:55.590Z,4.00
2022-08-14T10:10:01.796Z,4.35
2022-08-14T10:13:07.421Z,3.75
2022-08-14T10:16:25.798Z,4.25
2022-08-14T10:19:29.402Z,3.67
2022-08-14T10:23:15.008Z,3.20
2022-08-14T10:26:07.275Z,3.00
2022-08-14T10:29:19.423Z,3.75
2022-08-14T10:32:28.987Z,4.65
2022-08-14T10:35:47.794Z,3.28
2022-08-14T10:38:58.237Z,2.80
2022-08-14T10:42:16.241Z,3.40
2022-08-14T10:45:25.740Z,2.58
2022-08-14T10:48:37.191Z,2.55
2022-08-14T10:51:44.367Z,2.15
2022-08-14T10:54:48.474Z,2.63
2022-08-14T10:57:58.244Z,2.33
2022-08-14T11:04:05.290Z,2.67
2022-08-14T11:07:16.888Z,2.08
2022-08-14T11:10:47.196Z,2.35
2022-08-14T11:13:51.112Z,2.42
2022-08-14T11:16:54.005Z,2.80
2022-08-14T11:19:58.850Z,2.50
2022-08-14T11:23:01.925Z,2.50
2022-08-14T11:26:06.702Z,2.58
2022-08-14T11:29:10.272Z,2.55
2022-08-14T11:32:12.374Z,3.35
2022-08-14T11:35:44.049Z,4.72
2022-08-14T11:38:49.475Z,5.97
2022-08-14T11:41:56.082Z,4.43
2022-08-14T11:45:00.736Z,4.93
2022-08-14T11:49:02.433Z,8.60
2022-08-14T11:51:53.636Z,2.40
2022-08-14T11:54:57.854Z,2.75
2022-08-14T11:58:11.156Z,2.45
2022-08-14T12:01:15.119Z,2.95
2022-08-14T12:04:31.763Z,2.88
2022-08-14T12:07:34.709Z,1.30
2022-08-14T12:10:42.413Z,2.28
2022-08-14T12:13:45.106Z,0.90
2022-08-14T12:17:04.209Z,1.08
2022-08-14T12:20:07.128Z,1.17
2022-08-14T12:23:23.114Z,0.98
2022-08-14T12:26:38.847Z,1.30
2022-08-14T12:29:53.288Z,1.17
2022-08-14T12:32:56.321Z,0.82
2022-08-14T12:36:04.421Z,1.10
2022-08-14T12:39:22.558Z,0.70
2022-08-14T12:42:38.653Z,1.30
2022-08-14T12:45:55.024Z,0.88
2022-08-14T12:49:18.872Z,0.85
2022-08-14T12:53:06.465Z,1.00
2022-08-14T12:56:22.184Z,0.80
2022-08-14T12:59:37.119Z,2.13
2022-08-14T13:02:46.705Z,0.70
2022-08-14T13:05:56.874Z,0.73
2022-08-14T13:09:00.258Z,0.77
2022-08-14T13:12:32.374Z,0.85
2022-08-14T13:15:27.251Z,1.00
2022-08-14T13:18:31.293Z,1.10
2022-08-14T13:21:58.249Z,0.90
2022-08-14T13:24:55.432Z,0.80
2022-08-14T13:27:59.105Z,0.70
2022-08-14T13:31:11.194Z,0.98
2022-08-14T13:34:13.713Z,0.73
2022-08-14T13:37:17.541Z,0.55
2022-08-14T13:40:21.383Z,0.90
2022-08-14T13:43:36.501Z,0.77
2022-08-14T13:46:39.127Z,1.00
2022-08-14T13:49:57.843Z,0.70
2022-08-14T13:53:03.750Z,0.90
2022-08-14T13:56:06.590Z,0.90
2022-08-14T13:59:20.501Z,0.88
2022-08-14T14:02:48.186Z,1.10
2022-08-14T14:05:54.371Z,1.25
2022-08-14T14:08:59.181Z,1.00
2022-08-14T14:12:01.218Z,1.08
2022-08-14T14:15:07.541Z,0.90
2022-08-14T14:18:29.893Z,0.98
2022-08-14T14:21:34.338Z,0.90
2022-08-14T14:24:36.081Z,1.27
2022-08-14T14:27:41.584Z,1.10
2022-08-14T14:30:53.852Z,1.00
2022-08-14T14:34:01.180Z,1.13
2022-08-14T14:37:15.434Z,1.10
2022-08-14T14:40:50.398Z,1.08
2022-08-14T14:43:44.849Z,1.00
2022-08-14T14:46:50.046Z,1.15
2022-08-14T14:49:55.057Z,1.10
2022-08-14T14:53:12.393Z,1.40
2022-08-14T14:56:49.527Z,1.10
2022-08-14T14:59:37.592Z,1.15
2022-08-14T15:02:46.045Z,1.27
2022-08-14T15:05:53.240Z,1.05
2022-08-14T15:08:59.716Z,1.02
2022-08-14T15:12:16.053Z,1.10
2022-08-14T15:15:24.506Z,1.02
2022-08-14T15:18:36.902Z,1.23
2022-08-14T15:21:40.215Z,1.35
2022-08-14T15:24:44.140Z,1.30
2022-08-14T15:27:51.124Z,0.90
2022-08-14T15:30:58.998Z,1.25
2022-08-14T15:34:43.939Z,1.15
2022-08-14T15:37:42.408Z,1.20
2022-08-14T15:40:44.543Z,1.00
2022-08-14T15:43:56.655Z,1.20
2022-08-14T15:46:59.752Z,1.48
2022-08-14T15:50:04.897Z,1.33
2022-08-14T15:53:09.133Z,1.08
2022-08-14T15:56:42.196Z,1.40
2022-08-14T15:59:56.723Z,1.73
2022-08-14T16:03:00.744Z,1.40
2022-08-14T16:06:11.175Z,1.48
2022-08-14T16:09:17.614Z,1.55
2022-08-14T16:12:20.278Z,1.10
2022-08-14T16:15:52.991Z,1.20
2022-08-14T16:18:58.170Z,1.30
2022-08-14T16:22:57.229Z,1.55
2022-08-14T16:25:35.373Z,1.30
2022-08-14T16:28:37.925Z,2.40
2022-08-14T16:31:43.086Z,1.67
2022-08-14T16:34:48.507Z,1.75
2022-08-14T16:37:53.019Z,2.00
2022-08-14T16:41:17.102Z,1.75
2022-08-14T16:44:22.034Z,1.00
2022-08-14T16:47:36.303Z,1.30
2022-08-14T16:50:43.624Z,1.20
2022-08-14T16:53:47.473Z,1.10
2022-08-14T16:56:49.516Z,1.30
2022-08-14T16:59:57.749Z,1.30
2022-08-14T17:03:11.736Z,1.23
2022-08-14T17:06:30.880Z,1.35
2022-08-14T17:09:43.600Z,1.40
2022-08-14T17:12:45.779Z,1.63
2022-08-14T17:16:05.880Z,1.25
2022-08-14T17:19:14.436Z,1.35
2022-08-14T17:22:19.486Z,1.23
2022-08-14T17:25:23.150Z,1.45
2022-08-14T17:28:51.395Z,1.05
2022-08-14T17:32:02.156Z,1.17
2022-08-14T17:35:07.601Z,1.52
2022-08-14T17:38:33.384Z,1.30
2022-08-14T17:41:37.632Z,1.58
2022-08-14T17:44:46.008Z,1.40
2022-08-14T17:47:47.990Z,1.23
2022-08-14T17:50:59.418Z,1.23
2022-08-14T17:54:04.676Z,1.33
2022-08-14T17:57:14.104Z,1.35
2022-08-14T18:00:17.478Z,2.38
2022-08-14T18:03:50.961Z,2.15
2022-08-14T18:06:58.935Z,2.20
2022-08-14T18:10:51.751Z,2.47
2022-08-14T18:13:49.798Z,2.75
2022-08-14T18:16:55.924Z,3.25
2022-08-14T18:19:58.804Z,4.95
2022-08-14T18:23:01.342Z,3.90
2022-08-14T18:26:07.737Z,3.13
2022-08-14T18:29:31.625Z,1.90
2022-08-14T18:32:33.567Z,1.45
2022-08-14T18:36:46.758Z,1.40
2022-08-14T18:39:32.452Z,1.30
2022-08-14T18:42:35.819Z,1.35
2022-08-14T18:45:41.324Z,1.50
2022-08-14T18:48:50.840Z,1.65
2022-08-14T18:52:20.174Z,1.88
2022-08-14T18:55:22.375Z,1.70
2022-08-14T18:58:57.354Z,1.45
2022-08-14T19:02:34.261Z,1.40
2022-08-14T19:05:47.094Z,1.80
2022-08-14T19:08:50.189Z,1.80
2022-08-14T19:11:53.027Z,1.75
2022-08-14T19:15:08.147Z,1.80
2022-08-14T19:18:25.865Z,1.40
2022-08-14T19:21:42.989Z,1.30
2022-08-14T19:24:45.255Z,1.52
2022-08-14T19:28:31.228Z,1.17
2022-08-14T19:31:42.156Z,1.67
2022-08-14T19:34:52.748Z,1.40
2022-08-14T19:37:56.266Z,1.27
2022-08-14T19:40:58.818Z,1.33
2022-08-14T19:44:10.120Z,1.52
2022-08-14T19:47:13.420Z,1.38
2022-08-14T19:50:37.909Z,1.48
2022-08-14T19:53:56.418Z,1.52
2022-08-14T19:56:58.311Z,1.40
2022-08-14T20:03:18.643Z,1.60
2022-08-14T20:06:25.510Z,1.15
2022-08-14T20:11:08.261Z,1.60
2022-08-14T20:13:10.258Z,1.75
2022-08-14T20:16:12.827Z,1.50
2022-08-14T20:19:28.808Z,1.60
2022-08-14T20:22:38.615Z,1.67
2022-08-14T20:25:55.826Z,1.30
2022-08-14T20:29:04.580Z,1.42
2022-08-14T20:32:07.317Z,1.30
2022-08-14T20:35:09.291Z,1.30
2022-08-14T20:38:28.683Z,1.60
2022-08-14T20:41:33.802Z,1.52
2022-08-14T20:45:03.931Z,1.98
2022-08-14T20:48:09.196Z,1.40
2022-08-14T20:51:25.390Z,1.70
2022-08-14T20:54:50.677Z,1.58
2022-08-14T20:57:57.687Z,1.85
2022-08-14T21:01:20.778Z,1.58
2022-08-14T21:04:26.672Z,1.40
2022-08-14T21:07:36.611Z,2.08
2022-08-14T21:10:44.036Z,1.30
2022-08-14T21:14:21.054Z,1.50
2022-08-14T21:17:08.504Z,1.60
2022-08-14T21:20:25.478Z,1.58
2022-08-14T21:23:32.314Z,1.90
2022-08-14T21:26:52.442Z,1.40
2022-08-14T21:29:57.183Z,1.60
2022-08-14T21:36:09.850Z,1.70
2022-08-14T21:39:22.312Z,2.10
2022-08-14T21:42:27.897Z,1.60
2022-08-14T21:45:35.381Z,2.17
2022-08-14T21:48:37.860Z,2.00
2022-08-14T21:51:57.113Z,2.20
2022-08-14T21:55:09.273Z,1.70
2022-08-14T21:58:52.803Z,1.90
2022-08-14T22:01:59.644Z,1.73
2022-08-14T22:04:56.644Z,1.88
2022-08-14T22:07:58.487Z,2.00
2022-08-14T22:11:00.192Z,1.92
2022-08-14T22:14:26.063Z,1.80
2022-08-14T22:17:32.127Z,2.75
2022-08-14T22:20:36.401Z,1.90
2022-08-14T22:23:38.209Z,1.42
2022-08-14T22:26:44.914Z,1.65
2022-08-14T22:29:46.844Z,1.58
2022-08-14T22:33:00.029Z,2.65
2022-08-14T22:36:25.515Z,2.00
2022-08-14T22:40:17.585Z,1.70
2022-08-14T22:43:00.505Z,2.22
2022-08-14T22:46:06.047Z,1.90
2022-08-14T22:49:16.507Z,1.70
2022-08-14T22:52:33.145Z,2.08
2022-08-14T22:55:36.566Z,1.80
2022-08-14T22:58:38.558Z,1.80
2022-08-14T23:01:57.323Z,1.40
2022-08-14T23:05:04.681Z,1.65
2022-08-14T23:09:01.977Z,1.77
2022-08-14T23:11:29.722Z,1.80
2022-08-14T23:14:32.074Z,1.83
2022-08-14T23:17:39.571Z,1.70
2022-08-14T23:20:42.512Z,1.10
2022-08-14T23:23:46.139Z,1.50
2022-08-14T23:26:53.819Z,1.48
2022-08-14T23:29:55.649Z,1.70
2022-08-14T23:32:57.387Z,3.03
2022-08-14T23:36:03.288Z,1.65
2022-08-14T23:39:10.612Z,1.60
2022-08-14T23:42:22.322Z,1.60
2022-08-14T23:45:48.563Z,1.60
2022-08-14T23:48:52.453Z,1.58
2022-08-14T23:52:49.529Z,1.38
2022-08-14T23:55:16.763Z,1.50
